Hinton, United Kingdom
Current Conditions -  °F | °C
As of 7:20 PM on Saturday 25 Oct 2014 (Local Time) from EGGD Reporting Station
Light Rain Light Rain  
Wind Chill: 52°   Ceiling: 1700
Heat Index: 52°   Visibility: 6mi
Dew Point: 50°   Wind: 13mph
Humidity: 94%   Direction: 260°W
Pressure: 30.09"   Gusts: NA
Location:  51.49°N, 2.38°W
Report Text: EGGD 251820Z 26011KT 9999 -RADZ FEW003 SCT006 BKN017 11/10 Q1019
Loading
Personal Weather Stations






























Interactive Weather Map
Tropical Storm Tracking
New forecast layout! Learn more

10-Day Weather Forecast

Advertisements
Track Severe Weather on mobile